sensor_id;sensor_type;location;lat;lon;timestamp;P1;durP1;ratioP1;P2;durP2;ratioP2
71343;SDS011;59146;43.850;25.948;2023-12-20T00:01:02;21.50;;;11.68;;
71343;SDS011;59146;43.850;25.948;2023-12-20T00:03:27;25.13;;;13.13;;
71343;SDS011;59146;43.850;25.948;2023-12-20T00:05:53;20.20;;;12.38;;
71343;SDS011;59146;43.850;25.948;2023-12-20T00:08:18;20.15;;;11.95;;
71343;SDS011;59146;43.850;25.948;2023-12-20T00:10:44;20.40;;;11.65;;
71343;SDS011;59146;43.850;25.948;2023-12-20T00:13:09;25.98;;;12.02;;
71343;SDS011;59146;43.850;25.948;2023-12-20T00:15:35;20.42;;;11.75;;
71343;SDS011;59146;43.850;25.948;2023-12-20T00:18:00;24.40;;;10.93;;
71343;SDS011;59146;43.850;25.948;2023-12-20T00:20:26;19.70;;;11.73;;
71343;SDS011;59146;43.850;25.948;2023-12-20T00:22:52;20.42;;;11.70;;
71343;SDS011;59146;43.850;25.948;2023-12-20T00:25:19;21.52;;;11.70;;
71343;SDS011;59146;43.850;25.948;2023-12-20T00:27:45;17.80;;;11.27;;
71343;SDS011;59146;43.850;25.948;2023-12-20T00:30:10;21.75;;;10.57;;
71343;SDS011;59146;43.850;25.948;2023-12-20T00:32:36;17.23;;;10.38;;
71343;SDS011;59146;43.850;25.948;2023-12-20T00:35:01;16.67;;;10.27;;
71343;SDS011;59146;43.850;25.948;2023-12-20T00:37:27;19.85;;;11.23;;
71343;SDS011;59146;43.850;25.948;2023-12-20T00:39:52;19.45;;;10.23;;
71343;SDS011;59146;43.850;25.948;2023-12-20T00:42:18;18.58;;;12.10;;
71343;SDS011;59146;43.850;25.948;2023-12-20T00:44:43;19.77;;;11.05;;
71343;SDS011;59146;43.850;25.948;2023-12-20T00:47:09;14.85;;;8.88;;
71343;SDS011;59146;43.850;25.948;2023-12-20T00:49:34;13.82;;;8.73;;
71343;SDS011;59146;43.850;25.948;2023-12-20T00:51:59;14.20;;;8.65;;
71343;SDS011;59146;43.850;25.948;2023-12-20T00:54:25;16.65;;;9.05;;
71343;SDS011;59146;43.850;25.948;2023-12-20T00:56:50;11.98;;;8.30;;
71343;SDS011;59146;43.850;25.948;2023-12-20T00:59:16;12.88;;;7.82;;
71343;SDS011;59146;43.850;25.948;2023-12-20T01:01:42;11.07;;;7.18;;
71343;SDS011;59146;43.850;25.948;2023-12-20T01:04:07;11.52;;;7.32;;
71343;SDS011;59146;43.850;25.948;2023-12-20T01:06:33;9.75;;;6.63;;
71343;SDS011;59146;43.850;25.948;2023-12-20T01:08:58;11.93;;;6.65;;
71343;SDS011;59146;43.850;25.948;2023-12-20T01:11:23;13.95;;;6.90;;
71343;SDS011;59146;43.850;25.948;2023-12-20T01:13:49;9.75;;;6.22;;
71343;SDS011;59146;43.850;25.948;2023-12-20T01:16:14;9.88;;;6.40;;
71343;SDS011;59146;43.850;25.948;2023-12-20T01:18:40;11.90;;;7.38;;
71343;SDS011;59146;43.850;25.948;2023-12-20T01:21:05;10.40;;;7.32;;
71343;SDS011;59146;43.850;25.948;2023-12-20T01:23:31;12.25;;;6.97;;
71343;SDS011;59146;43.850;25.948;2023-12-20T01:25:57;12.95;;;7.75;;
71343;SDS011;59146;43.850;25.948;2023-12-20T01:28:24;12.15;;;6.88;;
71343;SDS011;59146;43.850;25.948;2023-12-20T01:30:50;11.60;;;6.85;;
71343;SDS011;59146;43.850;25.948;2023-12-20T01:33:16;13.75;;;8.25;;
71343;SDS011;59146;43.850;25.948;2023-12-20T01:35:41;12.95;;;8.25;;
71343;SDS011;59146;43.850;25.948;2023-12-20T01:38:06;12.25;;;8.23;;
71343;SDS011;59146;43.850;25.948;2023-12-20T01:40:32;13.05;;;8.00;;
71343;SDS011;59146;43.850;25.948;2023-12-20T01:42:58;10.88;;;7.40;;
71343;SDS011;59146;43.850;25.948;2023-12-20T01:45:33;11.07;;;7.60;;
71343;SDS011;59146;43.850;25.948;2023-12-20T01:47:59;16.63;;;7.28;;
71343;SDS011;59146;43.850;25.948;2023-12-20T01:50:27;11.10;;;6.55;;
71343;SDS011;59146;43.850;25.948;2023-12-20T01:52:53;14.02;;;7.25;;
71343;SDS011;59146;43.850;25.948;2023-12-20T01:55:22;15.07;;;7.75;;
71343;SDS011;59146;43.850;25.948;2023-12-20T01:57:49;12.23;;;7.00;;
71343;SDS011;59146;43.850;25.948;2023-12-20T02:00:15;12.40;;;7.55;;
71343;SDS011;59146;43.850;25.948;2023-12-20T02:02:41;12.15;;;7.65;;
71343;SDS011;59146;43.850;25.948;2023-12-20T02:05:08;11.38;;;7.70;;
71343;SDS011;59146;43.850;25.948;2023-12-20T02:07:34;12.45;;;8.02;;
71343;SDS011;59146;43.850;25.948;2023-12-20T02:10:00;16.50;;;8.80;;
71343;SDS011;59146;43.850;25.948;2023-12-20T02:12:31;15.32;;;8.80;;
71343;SDS011;59146;43.850;25.948;2023-12-20T02:14:56;18.33;;;10.10;;
71343;SDS011;59146;43.850;25.948;2023-12-20T02:17:22;17.00;;;9.90;;
71343;SDS011;59146;43.850;25.948;2023-12-20T02:19:48;16.50;;;11.18;;
71343;SDS011;59146;43.850;25.948;2023-12-20T02:22:15;20.90;;;12.50;;
71343;SDS011;59146;43.850;25.948;2023-12-20T02:24:40;21.33;;;11.23;;
71343;SDS011;59146;43.850;25.948;2023-12-20T02:27:06;15.40;;;10.18;;
71343;SDS011;59146;43.850;25.948;2023-12-20T02:29:33;14.82;;;9.43;;
71343;SDS011;59146;43.850;25.948;2023-12-20T02:31:59;16.02;;;9.38;;
71343;SDS011;59146;43.850;25.948;2023-12-20T02:34:24;18.30;;;11.23;;
71343;SDS011;59146;43.850;25.948;2023-12-20T02:36:50;21.38;;;12.55;;
71343;SDS011;59146;43.850;25.948;2023-12-20T02:39:15;23.77;;;14.13;;
71343;SDS011;59146;43.850;25.948;2023-12-20T02:41:41;26.40;;;15.57;;
71343;SDS011;59146;43.850;25.948;2023-12-20T02:44:06;23.30;;;15.15;;
71343;SDS011;59146;43.850;25.948;2023-12-20T02:46:32;25.45;;;16.42;;
71343;SDS011;59146;43.850;25.948;2023-12-20T02:48:57;23.63;;;14.80;;
71343;SDS011;59146;43.850;25.948;2023-12-20T02:51:22;19.65;;;13.70;;
71343;SDS011;59146;43.850;25.948;2023-12-20T02:53:48;20.30;;;12.70;;
71343;SDS011;59146;43.850;25.948;2023-12-20T02:56:13;20.02;;;12.00;;
71343;SDS011;59146;43.850;25.948;2023-12-20T02:58:39;19.35;;;11.90;;
71343;SDS011;59146;43.850;25.948;2023-12-20T03:01:05;18.67;;;11.27;;
71343;SDS011;59146;43.850;25.948;2023-12-20T03:03:31;16.58;;;10.35;;
71343;SDS011;59146;43.850;25.948;2023-12-20T03:05:57;16.88;;;11.48;;
71343;SDS011;59146;43.850;25.948;2023-12-20T03:08:22;16.52;;;10.30;;
71343;SDS011;59146;43.850;25.948;2023-12-20T03:10:48;14.32;;;9.63;;
71343;SDS011;59146;43.850;25.948;2023-12-20T03:13:13;14.55;;;9.93;;
71343;SDS011;59146;43.850;25.948;2023-12-20T03:15:39;14.10;;;9.82;;
71343;SDS011;59146;43.850;25.948;2023-12-20T03:18:05;14.77;;;9.40;;
71343;SDS011;59146;43.850;25.948;2023-12-20T03:20:31;14.35;;;9.02;;
71343;SDS011;59146;43.850;25.948;2023-12-20T03:22:59;19.00;;;9.88;;
71343;SDS011;59146;43.850;25.948;2023-12-20T03:25:27;15.80;;;10.00;;
71343;SDS011;59146;43.850;25.948;2023-12-20T03:27:53;15.23;;;10.38;;
71343;SDS011;59146;43.850;25.948;2023-12-20T03:30:19;16.45;;;12.00;;
71343;SDS011;59146;43.850;25.948;2023-12-20T03:32:44;19.83;;;12.10;;
71343;SDS011;59146;43.850;25.948;2023-12-20T03:35:10;20.92;;;14.75;;
71343;SDS011;59146;43.850;25.948;2023-12-20T03:37:36;22.60;;;16.08;;
71343;SDS011;59146;43.850;25.948;2023-12-20T03:40:02;23.65;;;15.80;;
71343;SDS011;59146;43.850;25.948;2023-12-20T03:42:28;22.63;;;15.82;;
71343;SDS011;59146;43.850;25.948;2023-12-20T03:44:53;19.30;;;13.25;;
71343;SDS011;59146;43.850;25.948;2023-12-20T03:47:18;19.20;;;13.63;;
71343;SDS011;59146;43.850;25.948;2023-12-20T03:49:44;19.52;;;13.05;;
71343;SDS011;59146;43.850;25.948;2023-12-20T03:52:09;24.77;;;16.17;;
71343;SDS011;59146;43.850;25.948;2023-12-20T03:54:35;19.25;;;13.02;;
71343;SDS011;59146;43.850;25.948;2023-12-20T03:57:00;17.48;;;11.70;;
71343;SDS011;59146;43.850;25.948;2023-12-20T03:59:26;16.63;;;11.05;;
71343;SDS011;59146;43.850;25.948;2023-12-20T04:01:52;20.55;;;11.60;;
71343;SDS011;59146;43.850;25.948;2023-12-20T04:04:17;15.80;;;11.57;;
71343;SDS011;59146;43.850;25.948;2023-12-20T04:06:43;17.10;;;11.98;;
71343;SDS011;59146;43.850;25.948;2023-12-20T04:09:08;18.92;;;13.60;;
71343;SDS011;59146;43.850;25.948;2023-12-20T04:11:37;22.73;;;14.20;;
71343;SDS011;59146;43.850;25.948;2023-12-20T04:14:02;21.25;;;12.80;;
71343;SDS011;59146;43.850;25.948;2023-12-20T04:16:30;24.05;;;14.40;;
71343;SDS011;59146;43.850;25.948;2023-12-20T04:18:55;21.15;;;14.45;;
71343;SDS011;59146;43.850;25.948;2023-12-20T04:21:20;22.58;;;14.25;;
71343;SDS011;59146;43.850;25.948;2023-12-20T04:23:46;21.05;;;16.10;;
71343;SDS011;59146;43.850;25.948;2023-12-20T04:26:11;24.13;;;15.00;;
71343;SDS011;59146;43.850;25.948;2023-12-20T04:28:37;23.70;;;15.35;;
71343;SDS011;59146;43.850;25.948;2023-12-20T04:31:02;22.08;;;14.88;;
71343;SDS011;59146;43.850;25.948;2023-12-20T04:33:28;21.50;;;13.85;;
71343;SDS011;59146;43.850;25.948;2023-12-20T04:35:53;21.67;;;14.45;;
71343;SDS011;59146;43.850;25.948;2023-12-20T04:38:19;19.13;;;12.52;;
71343;SDS011;59146;43.850;25.948;2023-12-20T04:40:44;26.52;;;14.25;;
71343;SDS011;59146;43.850;25.948;2023-12-20T04:43:09;20.63;;;12.65;;
71343;SDS011;59146;43.850;25.948;2023-12-20T04:45:35;21.95;;;13.98;;
71343;SDS011;59146;43.850;25.948;2023-12-20T04:48:01;21.10;;;12.98;;
71343;SDS011;59146;43.850;25.948;2023-12-20T04:50:27;20.35;;;13.35;;
71343;SDS011;59146;43.850;25.948;2023-12-20T04:52:52;21.75;;;12.68;;
71343;SDS011;59146;43.850;25.948;2023-12-20T04:55:18;21.23;;;11.30;;
71343;SDS011;59146;43.850;25.948;2023-12-20T04:57:43;19.23;;;12.55;;
71343;SDS011;59146;43.850;25.948;2023-12-20T05:00:09;18.40;;;10.63;;
71343;SDS011;59146;43.850;25.948;2023-12-20T05:02:35;18.55;;;12.43;;
71343;SDS011;59146;43.850;25.948;2023-12-20T05:05:01;23.20;;;13.63;;
71343;SDS011;59146;43.850;25.948;2023-12-20T05:07:27;26.48;;;16.75;;
71343;SDS011;59146;43.850;25.948;2023-12-20T05:09:52;29.00;;;18.88;;
71343;SDS011;59146;43.850;25.948;2023-12-20T05:12:18;30.75;;;19.35;;
71343;SDS011;59146;43.850;25.948;2023-12-20T05:14:43;25.58;;;17.17;;
71343;SDS011;59146;43.850;25.948;2023-12-20T05:17:09;19.52;;;13.43;;
71343;SDS011;59146;43.850;25.948;2023-12-20T05:19:34;16.08;;;11.60;;
71343;SDS011;59146;43.850;25.948;2023-12-20T05:22:00;16.52;;;11.30;;
71343;SDS011;59146;43.850;25.948;2023-12-20T05:24:27;18.23;;;10.23;;
71343;SDS011;59146;43.850;25.948;2023-12-20T05:26:52;16.55;;;10.65;;
71343;SDS011;59146;43.850;25.948;2023-12-20T05:29:18;21.42;;;9.98;;
71343;SDS011;59146;43.850;25.948;2023-12-20T05:31:43;14.30;;;9.60;;
71343;SDS011;59146;43.850;25.948;2023-12-20T05:34:09;19.05;;;11.15;;
71343;SDS011;59146;43.850;25.948;2023-12-20T05:36:34;17.17;;;10.55;;
71343;SDS011;59146;43.850;25.948;2023-12-20T05:39:00;16.40;;;10.90;;
71343;SDS011;59146;43.850;25.948;2023-12-20T05:41:25;17.70;;;11.05;;
71343;SDS011;59146;43.850;25.948;2023-12-20T05:43:51;16.17;;;10.43;;
71343;SDS011;59146;43.850;25.948;2023-12-20T05:46:16;17.75;;;11.50;;
71343;SDS011;59146;43.850;25.948;2023-12-20T05:48:41;25.85;;;15.55;;
71343;SDS011;59146;43.850;25.948;2023-12-20T05:51:07;17.00;;;10.68;;
71343;SDS011;59146;43.850;25.948;2023-12-20T05:53:33;17.73;;;11.82;;
71343;SDS011;59146;43.850;25.948;2023-12-20T05:55:58;20.48;;;11.82;;
71343;SDS011;59146;43.850;25.948;2023-12-20T05:58:25;20.48;;;12.25;;
71343;SDS011;59146;43.850;25.948;2023-12-20T06:00:52;22.20;;;14.23;;
71343;SDS011;59146;43.850;25.948;2023-12-20T06:03:17;22.17;;;14.43;;
71343;SDS011;59146;43.850;25.948;2023-12-20T06:05:43;22.10;;;13.60;;
71343;SDS011;59146;43.850;25.948;2023-12-20T06:08:08;21.65;;;14.10;;
71343;SDS011;59146;43.850;25.948;2023-12-20T06:10:33;22.67;;;14.43;;
71343;SDS011;59146;43.850;25.948;2023-12-20T06:12:59;24.75;;;13.43;;
71343;SDS011;59146;43.850;25.948;2023-12-20T06:15:25;23.88;;;15.15;;
71343;SDS011;59146;43.850;25.948;2023-12-20T06:17:51;24.73;;;15.00;;
71343;SDS011;59146;43.850;25.948;2023-12-20T06:20:16;31.02;;;16.90;;
71343;SDS011;59146;43.850;25.948;2023-12-20T06:22:42;33.50;;;19.45;;
71343;SDS011;59146;43.850;25.948;2023-12-20T06:25:07;50.20;;;22.90;;
71343;SDS011;59146;43.850;25.948;2023-12-20T06:27:34;32.75;;;21.35;;
71343;SDS011;59146;43.850;25.948;2023-12-20T06:29:59;48.80;;;24.30;;
71343;SDS011;59146;43.850;25.948;2023-12-20T06:32:24;55.75;;;30.30;;
71343;SDS011;59146;43.850;25.948;2023-12-20T06:34:50;69.88;;;35.50;;
71343;SDS011;59146;43.850;25.948;2023-12-20T06:37:15;66.88;;;39.35;;
71343;SDS011;59146;43.850;25.948;2023-12-20T06:39:41;85.45;;;46.10;;
71343;SDS011;59146;43.850;25.948;2023-12-20T06:42:06;87.55;;;47.28;;
71343;SDS011;59146;43.850;25.948;2023-12-20T06:44:32;80.32;;;45.72;;
71343;SDS011;59146;43.850;25.948;2023-12-20T06:46:57;66.90;;;38.60;;
71343;SDS011;59146;43.850;25.948;2023-12-20T06:49:23;55.17;;;31.73;;
71343;SDS011;59146;43.850;25.948;2023-12-20T06:51:48;53.28;;;31.95;;
71343;SDS011;59146;43.850;25.948;2023-12-20T06:54:14;44.60;;;28.63;;
71343;SDS011;59146;43.850;25.948;2023-12-20T06:56:39;40.67;;;27.33;;
71343;SDS011;59146;43.850;25.948;2023-12-20T06:59:06;51.90;;;29.00;;
71343;SDS011;59146;43.850;25.948;2023-12-20T07:01:31;48.22;;;28.33;;
71343;SDS011;59146;43.850;25.948;2023-12-20T07:03:57;44.65;;;29.13;;
71343;SDS011;59146;43.850;25.948;2023-12-20T07:06:22;38.75;;;27.63;;
71343;SDS011;59146;43.850;25.948;2023-12-20T07:08:48;49.90;;;29.33;;
71343;SDS011;59146;43.850;25.948;2023-12-20T07:11:14;49.55;;;28.63;;
71343;SDS011;59146;43.850;25.948;2023-12-20T07:13:39;52.95;;;31.00;;
71343;SDS011;59146;43.850;25.948;2023-12-20T07:16:05;52.22;;;32.53;;
71343;SDS011;59146;43.850;25.948;2023-12-20T07:18:30;53.17;;;30.88;;
71343;SDS011;59146;43.850;25.948;2023-12-20T07:20:56;70.25;;;39.58;;
71343;SDS011;59146;43.850;25.948;2023-12-20T07:23:21;95.07;;;47.13;;
71343;SDS011;59146;43.850;25.948;2023-12-20T07:25:47;107.40;;;56.58;;
71343;SDS011;59146;43.850;25.948;2023-12-20T07:28:12;118.97;;;68.28;;
71343;SDS011;59146;43.850;25.948;2023-12-20T07:30:37;128.23;;;68.28;;
71343;SDS011;59146;43.850;25.948;2023-12-20T07:33:03;119.45;;;65.35;;
71343;SDS011;59146;43.850;25.948;2023-12-20T07:35:29;111.88;;;62.22;;
71343;SDS011;59146;43.850;25.948;2023-12-20T07:37:54;77.93;;;44.30;;
71343;SDS011;59146;43.850;25.948;2023-12-20T07:40:19;79.85;;;45.50;;
71343;SDS011;59146;43.850;25.948;2023-12-20T07:42:45;62.13;;;35.20;;
71343;SDS011;59146;43.850;25.948;2023-12-20T07:45:10;52.72;;;31.20;;
71343;SDS011;59146;43.850;25.948;2023-12-20T07:47:36;59.30;;;31.20;;
71343;SDS011;59146;43.850;25.948;2023-12-20T07:50:02;70.88;;;38.55;;
71343;SDS011;59146;43.850;25.948;2023-12-20T07:52:28;77.28;;;38.55;;
71343;SDS011;59146;43.850;25.948;2023-12-20T07:54:54;61.65;;;33.03;;
71343;SDS011;59146;43.850;25.948;2023-12-20T07:57:20;52.65;;;26.77;;
71343;SDS011;59146;43.850;25.948;2023-12-20T07:59:45;44.17;;;23.13;;
71343;SDS011;59146;43.850;25.948;2023-12-20T08:02:11;30.10;;;18.63;;
71343;SDS011;59146;43.850;25.948;2023-12-20T08:04:36;26.95;;;15.57;;
71343;SDS011;59146;43.850;25.948;2023-12-20T08:07:02;36.20;;;17.42;;
71343;SDS011;59146;43.850;25.948;2023-12-20T08:09:28;25.52;;;13.65;;
71343;SDS011;59146;43.850;25.948;2023-12-20T08:11:54;27.17;;;13.13;;
71343;SDS011;59146;43.850;25.948;2023-12-20T08:14:20;27.27;;;14.00;;
71343;SDS011;59146;43.850;25.948;2023-12-20T08:16:46;27.08;;;12.73;;
71343;SDS011;59146;43.850;25.948;2023-12-20T08:19:11;82.68;;;23.45;;
71343;SDS011;59146;43.850;25.948;2023-12-20T08:21:38;38.50;;;19.08;;
71343;SDS011;59146;43.850;25.948;2023-12-20T08:24:04;21.60;;;11.13;;
71343;SDS011;59146;43.850;25.948;2023-12-20T08:26:30;26.48;;;11.73;;
71343;SDS011;59146;43.850;25.948;2023-12-20T08:28:55;24.98;;;12.63;;
71343;SDS011;59146;43.850;25.948;2023-12-20T08:31:20;33.10;;;13.25;;
71343;SDS011;59146;43.850;25.948;2023-12-20T08:33:47;25.77;;;11.93;;
71343;SDS011;59146;43.850;25.948;2023-12-20T08:36:13;27.65;;;13.52;;
71343;SDS011;59146;43.850;25.948;2023-12-20T08:38:39;24.70;;;12.13;;
71343;SDS011;59146;43.850;25.948;2023-12-20T08:41:05;30.58;;;13.23;;
71343;SDS011;59146;43.850;25.948;2023-12-20T08:43:31;20.33;;;11.40;;
71343;SDS011;59146;43.850;25.948;2023-12-20T08:45:58;16.63;;;10.02;;
71343;SDS011;59146;43.850;25.948;2023-12-20T08:48:24;17.63;;;10.60;;
71343;SDS011;59146;43.850;25.948;2023-12-20T08:50:49;25.58;;;10.85;;
71343;SDS011;59146;43.850;25.948;2023-12-20T08:53:16;40.15;;;11.13;;
71343;SDS011;59146;43.850;25.948;2023-12-20T08:55:42;31.60;;;10.50;;
71343;SDS011;59146;43.850;25.948;2023-12-20T08:58:07;23.25;;;11.40;;
71343;SDS011;59146;43.850;25.948;2023-12-20T09:00:33;23.25;;;14.50;;
71343;SDS011;59146;43.850;25.948;2023-12-20T09:02:59;24.15;;;12.80;;
71343;SDS011;59146;43.850;25.948;2023-12-20T09:05:25;28.63;;;14.35;;
71343;SDS011;59146;43.850;25.948;2023-12-20T09:07:50;26.85;;;13.15;;
71343;SDS011;59146;43.850;25.948;2023-12-20T09:10:16;17.33;;;11.50;;
71343;SDS011;59146;43.850;25.948;2023-12-20T09:12:46;25.05;;;12.40;;
71343;SDS011;59146;43.850;25.948;2023-12-20T09:15:12;20.80;;;12.20;;
71343;SDS011;59146;43.850;25.948;2023-12-20T09:17:38;24.65;;;12.15;;
71343;SDS011;59146;43.850;25.948;2023-12-20T09:20:05;24.23;;;11.93;;
71343;SDS011;59146;43.850;25.948;2023-12-20T09:22:33;19.48;;;11.52;;
71343;SDS011;59146;43.850;25.948;2023-12-20T09:24:59;19.73;;;11.23;;
71343;SDS011;59146;43.850;25.948;2023-12-20T09:27:24;26.27;;;11.50;;
71343;SDS011;59146;43.850;25.948;2023-12-20T09:29:50;21.20;;;11.68;;
71343;SDS011;59146;43.850;25.948;2023-12-20T09:32:15;18.88;;;12.60;;
71343;SDS011;59146;43.850;25.948;2023-12-20T09:34:41;18.85;;;11.07;;
71343;SDS011;59146;43.850;25.948;2023-12-20T09:37:07;22.52;;;12.43;;
71343;SDS011;59146;43.850;25.948;2023-12-20T09:39:32;28.65;;;12.60;;
71343;SDS011;59146;43.850;25.948;2023-12-20T09:42:02;27.63;;;12.35;;
71343;SDS011;59146;43.850;25.948;2023-12-20T09:44:29;105.43;;;21.27;;
71343;SDS011;59146;43.850;25.948;2023-12-20T09:46:56;35.15;;;13.55;;
71343;SDS011;59146;43.850;25.948;2023-12-20T09:49:22;46.42;;;13.18;;
71343;SDS011;59146;43.850;25.948;2023-12-20T09:51:48;92.57;;;17.35;;
71343;SDS011;59146;43.850;25.948;2023-12-20T09:54:16;38.92;;;13.27;;
71343;SDS011;59146;43.850;25.948;2023-12-20T09:56:43;39.15;;;15.00;;
71343;SDS011;59146;43.850;25.948;2023-12-20T09:59:09;38.42;;;18.80;;
71343;SDS011;59146;43.850;25.948;2023-12-20T10:01:35;41.88;;;18.90;;
71343;SDS011;59146;43.850;25.948;2023-12-20T10:04:01;34.50;;;15.63;;
71343;SDS011;59146;43.850;25.948;2023-12-20T10:06:33;38.72;;;14.23;;
71343;SDS011;59146;43.850;25.948;2023-12-20T10:09:02;29.80;;;13.50;;
71343;SDS011;59146;43.850;25.948;2023-12-20T10:11:27;17.38;;;11.68;;
71343;SDS011;59146;43.850;25.948;2023-12-20T10:13:58;22.60;;;11.55;;
71343;SDS011;59146;43.850;25.948;2023-12-20T10:16:27;20.33;;;12.35;;
71343;SDS011;59146;43.850;25.948;2023-12-20T10:18:56;30.10;;;13.25;;
71343;SDS011;59146;43.850;25.948;2023-12-20T10:21:22;21.35;;;13.02;;
71343;SDS011;59146;43.850;25.948;2023-12-20T10:23:50;45.65;;;14.43;;
71343;SDS011;59146;43.850;25.948;2023-12-20T10:26:20;31.95;;;14.82;;
71343;SDS011;59146;43.850;25.948;2023-12-20T10:28:49;28.60;;;15.85;;
71343;SDS011;59146;43.850;25.948;2023-12-20T10:33:56;28.88;;;16.05;;
71343;SDS011;59146;43.850;25.948;2023-12-20T10:36:23;31.73;;;14.90;;
71343;SDS011;59146;43.850;25.948;2023-12-20T10:38:49;29.88;;;14.82;;
71343;SDS011;59146;43.850;25.948;2023-12-20T10:41:16;31.13;;;15.13;;
71343;SDS011;59146;43.850;25.948;2023-12-20T10:43:51;22.27;;;14.88;;
71343;SDS011;59146;43.850;25.948;2023-12-20T10:46:17;29.60;;;14.63;;
71343;SDS011;59146;43.850;25.948;2023-12-20T10:48:44;23.52;;;14.50;;
71343;SDS011;59146;43.850;25.948;2023-12-20T10:51:10;29.65;;;15.88;;
71343;SDS011;59146;43.850;25.948;2023-12-20T10:53:36;37.28;;;16.40;;
71343;SDS011;59146;43.850;25.948;2023-12-20T10:56:04;28.17;;;16.17;;
71343;SDS011;59146;43.850;25.948;2023-12-20T10:58:32;28.83;;;16.10;;
71343;SDS011;59146;43.850;25.948;2023-12-20T11:00:59;32.17;;;15.65;;
71343;SDS011;59146;43.850;25.948;2023-12-20T11:03:30;24.90;;;15.70;;
71343;SDS011;59146;43.850;25.948;2023-12-20T11:06:03;27.95;;;14.32;;
71343;SDS011;59146;43.850;25.948;2023-12-20T11:08:39;30.83;;;15.80;;
71343;SDS011;59146;43.850;25.948;2023-12-20T11:11:14;35.35;;;17.80;;
71343;SDS011;59146;43.850;25.948;2023-12-20T11:16:25;38.70;;;18.55;;
71343;SDS011;59146;43.850;25.948;2023-12-20T11:18:50;32.13;;;19.77;;
71343;SDS011;59146;43.850;25.948;2023-12-20T11:21:16;35.78;;;19.35;;
71343;SDS011;59146;43.850;25.948;2023-12-20T11:23:42;35.55;;;20.10;;
71343;SDS011;59146;43.850;25.948;2023-12-20T11:26:08;35.88;;;19.80;;
71343;SDS011;59146;43.850;25.948;2023-12-20T11:28:33;42.45;;;19.52;;
71343;SDS011;59146;43.850;25.948;2023-12-20T11:31:00;38.33;;;19.20;;
71343;SDS011;59146;43.850;25.948;2023-12-20T11:33:29;36.65;;;19.75;;
71343;SDS011;59146;43.850;25.948;2023-12-20T11:35:56;34.10;;;20.10;;
71343;SDS011;59146;43.850;25.948;2023-12-20T11:38:22;34.50;;;19.80;;
71343;SDS011;59146;43.850;25.948;2023-12-20T11:40:49;36.40;;;18.35;;
71343;SDS011;59146;43.850;25.948;2023-12-20T11:43:29;35.05;;;17.98;;
71343;SDS011;59146;43.850;25.948;2023-12-20T11:46:01;29.33;;;17.60;;
71343;SDS011;59146;43.850;25.948;2023-12-20T11:48:28;25.40;;;15.77;;
71343;SDS011;59146;43.850;25.948;2023-12-20T11:50:56;27.77;;;16.90;;
71343;SDS011;59146;43.850;25.948;2023-12-20T11:53:21;21.83;;;13.85;;
71343;SDS011;59146;43.850;25.948;2023-12-20T11:55:48;22.13;;;12.10;;
71343;SDS011;59146;43.850;25.948;2023-12-20T11:58:14;24.65;;;13.60;;
71343;SDS011;59146;43.850;25.948;2023-12-20T12:00:41;22.00;;;13.82;;
71343;SDS011;59146;43.850;25.948;2023-12-20T12:03:09;28.02;;;14.52;;
71343;SDS011;59146;43.850;25.948;2023-12-20T12:05:34;25.38;;;12.30;;
71343;SDS011;59146;43.850;25.948;2023-12-20T12:08:01;16.20;;;10.50;;
71343;SDS011;59146;43.850;25.948;2023-12-20T12:10:27;18.33;;;10.15;;
71343;SDS011;59146;43.850;25.948;2023-12-20T12:12:53;10.38;;;7.40;;
71343;SDS011;59146;43.850;25.948;2023-12-20T12:15:19;14.45;;;8.13;;
71343;SDS011;59146;43.850;25.948;2023-12-20T12:17:52;10.10;;;6.63;;
71343;SDS011;59146;43.850;25.948;2023-12-20T12:20:21;10.15;;;6.50;;
71343;SDS011;59146;43.850;25.948;2023-12-20T12:23:00;14.20;;;6.95;;
71343;SDS011;59146;43.850;25.948;2023-12-20T12:25:26;14.70;;;6.53;;
71343;SDS011;59146;43.850;25.948;2023-12-20T12:27:53;9.98;;;6.55;;
71343;SDS011;59146;43.850;25.948;2023-12-20T12:30:19;12.73;;;7.30;;
71343;SDS011;59146;43.850;25.948;2023-12-20T12:32:44;15.50;;;7.75;;
71343;SDS011;59146;43.850;25.948;2023-12-20T12:35:10;19.42;;;7.15;;
71343;SDS011;59146;43.850;25.948;2023-12-20T12:37:37;15.30;;;7.82;;
71343;SDS011;59146;43.850;25.948;2023-12-20T12:42:35;13.15;;;6.32;;
71343;SDS011;59146;43.850;25.948;2023-12-20T12:45:01;21.08;;;6.70;;
71343;SDS011;59146;43.850;25.948;2023-12-20T12:47:26;16.90;;;7.10;;
71343;SDS011;59146;43.850;25.948;2023-12-20T12:49:52;17.50;;;8.32;;
71343;SDS011;59146;43.850;25.948;2023-12-20T12:52:18;15.85;;;9.05;;
71343;SDS011;59146;43.850;25.948;2023-12-20T12:54:43;13.65;;;9.48;;
71343;SDS011;59146;43.850;25.948;2023-12-20T12:57:10;14.75;;;9.05;;
71343;SDS011;59146;43.850;25.948;2023-12-20T12:59:36;29.70;;;10.50;;
71343;SDS011;59146;43.850;25.948;2023-12-20T13:02:01;16.58;;;9.10;;
71343;SDS011;59146;43.850;25.948;2023-12-20T13:04:27;19.25;;;9.93;;
71343;SDS011;59146;43.850;25.948;2023-12-20T13:06:52;15.35;;;9.48;;
71343;SDS011;59146;43.850;25.948;2023-12-20T13:09:18;18.05;;;10.07;;
71343;SDS011;59146;43.850;25.948;2023-12-20T13:11:44;13.85;;;7.40;;
71343;SDS011;59146;43.850;25.948;2023-12-20T13:14:10;19.00;;;7.22;;
71343;SDS011;59146;43.850;25.948;2023-12-20T13:16:40;24.45;;;8.93;;
71343;SDS011;59146;43.850;25.948;2023-12-20T13:19:06;15.15;;;6.88;;
71343;SDS011;59146;43.850;25.948;2023-12-20T13:21:31;13.82;;;7.05;;
71343;SDS011;59146;43.850;25.948;2023-12-20T13:23:57;26.38;;;7.65;;
71343;SDS011;59146;43.850;25.948;2023-12-20T13:26:22;14.82;;;7.38;;
71343;SDS011;59146;43.850;25.948;2023-12-20T13:28:48;12.40;;;6.47;;
71343;SDS011;59146;43.850;25.948;2023-12-20T13:31:13;12.52;;;6.50;;
71343;SDS011;59146;43.850;25.948;2023-12-20T13:33:38;9.82;;;6.68;;
71343;SDS011;59146;43.850;25.948;2023-12-20T13:36:05;10.15;;;6.07;;
71343;SDS011;59146;43.850;25.948;2023-12-20T13:38:31;12.60;;;6.78;;
71343;SDS011;59146;43.850;25.948;2023-12-20T13:40:56;10.52;;;6.78;;
71343;SDS011;59146;43.850;25.948;2023-12-20T13:43:23;14.93;;;8.55;;
71343;SDS011;59146;43.850;25.948;2023-12-20T13:45:49;16.10;;;8.60;;
71343;SDS011;59146;43.850;25.948;2023-12-20T13:48:15;14.88;;;7.10;;
71343;SDS011;59146;43.850;25.948;2023-12-20T13:50:41;13.45;;;7.38;;
71343;SDS011;59146;43.850;25.948;2023-12-20T13:53:06;14.32;;;7.40;;
71343;SDS011;59146;43.850;25.948;2023-12-20T13:55:32;12.30;;;7.05;;
71343;SDS011;59146;43.850;25.948;2023-12-20T13:57:57;11.38;;;7.00;;
71343;SDS011;59146;43.850;25.948;2023-12-20T14:00:23;14.20;;;7.80;;
71343;SDS011;59146;43.850;25.948;2023-12-20T14:02:48;13.18;;;7.88;;
71343;SDS011;59146;43.850;25.948;2023-12-20T14:05:14;13.57;;;7.38;;
71343;SDS011;59146;43.850;25.948;2023-12-20T14:07:45;12.85;;;7.30;;
71343;SDS011;59146;43.850;25.948;2023-12-20T14:10:11;15.05;;;8.65;;
71343;SDS011;59146;43.850;25.948;2023-12-20T14:12:41;14.65;;;9.32;;